createdAt,value
2023-03-17T00:00:56.928Z,99.90
2023-03-17T00:06:00.456Z,99.90
2023-03-17T00:11:02.399Z,99.90
2023-03-17T00:16:06.801Z,99.90
2023-03-17T00:21:12.876Z,99.90
2023-03-17T00:26:14.561Z,99.90
2023-03-17T00:31:18.302Z,99.90
2023-03-17T00:36:23.838Z,99.90
2023-03-17T00:41:25.848Z,99.90
2023-03-17T00:46:29.410Z,99.90
2023-03-17T00:51:32.475Z,99.90
2023-03-17T00:56:34.153Z,99.90
2023-03-17T01:01:35.820Z,99.90
2023-03-17T01:06:39.025Z,99.90
2023-03-17T01:11:41.109Z,99.90
2023-03-17T01:16:42.925Z,99.90
2023-03-17T01:21:46.221Z,99.90
2023-03-17T01:26:47.945Z,99.90
2023-03-17T01:31:49.603Z,99.90
2023-03-17T01:36:52.625Z,99.90
2023-03-17T01:41:54.319Z,99.90
2023-03-17T01:46:56.068Z,99.90
2023-03-17T01:52:04.628Z,99.90
2023-03-17T01:57:12.624Z,99.90
2023-03-17T02:02:19.848Z,99.90
2023-03-17T02:07:24.381Z,99.90
2023-03-17T02:12:28.326Z,99.90
2023-03-17T02:17:30.004Z,99.90
2023-03-17T02:22:33.253Z,99.90
2023-03-17T02:27:38.041Z,99.90
2023-03-17T02:32:39.622Z,99.90
2023-03-17T02:37:42.735Z,99.90
2023-03-17T02:42:44.454Z,99.90
2023-03-17T02:47:46.601Z,99.90
2023-03-17T02:52:49.921Z,99.90
2023-03-17T02:57:51.624Z,99.90
2023-03-17T03:02:53.492Z,99.90
2023-03-17T03:07:56.671Z,99.90
2023-03-17T03:12:58.355Z,99.90
2023-03-17T03:17:59.994Z,99.90
2023-03-17T03:23:03.071Z,99.90
2023-03-17T03:28:05.151Z,99.90
2023-03-17T03:33:06.998Z,99.90
2023-03-17T03:38:10.201Z,99.90
2023-03-17T03:43:22.500Z,99.90
2023-03-17T03:48:25.270Z,99.90
2023-03-17T03:53:29.312Z,99.90
2023-03-17T03:58:31.019Z,99.90
2023-03-17T04:03:32.761Z,99.90
2023-03-17T04:08:35.966Z,99.90
2023-03-17T04:13:37.642Z,99.90
2023-03-17T04:18:39.352Z,99.90
2023-03-17T04:23:42.433Z,99.90
2023-03-17T04:28:44.173Z,99.90
2023-03-17T04:33:45.900Z,99.90
2023-03-17T04:38:49.361Z,99.90
2023-03-17T04:43:51.034Z,99.90
2023-03-17T04:48:52.720Z,99.90
2023-03-17T04:53:55.780Z,99.90
2023-03-17T04:58:57.692Z,99.90
2023-03-17T05:03:59.345Z,99.90
2023-03-17T05:09:02.804Z,99.90
2023-03-17T05:14:04.524Z,99.90
2023-03-17T05:19:06.333Z,99.90
2023-03-17T05:24:09.407Z,99.90
2023-03-17T05:29:11.221Z,99.90
2023-03-17T05:34:13.215Z,99.90
2023-03-17T05:39:16.288Z,99.90
2023-03-17T05:44:18.051Z,99.90
2023-03-17T05:49:19.806Z,99.90
2023-03-17T05:54:22.830Z,99.90
2023-03-17T05:59:24.587Z,99.90
2023-03-17T06:04:26.240Z,99.90
2023-03-17T06:09:29.472Z,99.90
2023-03-17T06:14:31.190Z,99.90
2023-03-17T06:19:32.928Z,99.90
2023-03-17T06:24:36.261Z,99.90
2023-03-17T06:29:37.990Z,99.90
2023-03-17T06:34:39.688Z,99.90
2023-03-17T06:39:42.900Z,99.90
2023-03-17T06:45:15.362Z,99.90
2023-03-17T06:50:17.582Z,99.90
2023-03-17T06:55:20.794Z,99.90
2023-03-17T07:00:22.875Z,99.90
2023-03-17T07:05:24.633Z,99.90
2023-03-17T07:10:27.772Z,99.90
2023-03-17T07:15:29.797Z,99.90
2023-03-17T07:20:32.163Z,99.90
2023-03-17T07:25:35.279Z,99.90
2023-03-17T07:30:37.059Z,99.90
2023-03-17T07:35:38.993Z,99.90
2023-03-17T07:40:42.083Z,99.90
2023-03-17T07:45:43.921Z,99.90
2023-03-17T07:50:45.707Z,99.90
2023-03-17T07:55:48.805Z,99.90
2023-03-17T08:00:51.226Z,99.90
2023-03-17T08:05:53.334Z,99.90
2023-03-17T08:11:02.099Z,99.90
2023-03-17T08:16:04.459Z,99.90
2023-03-17T08:21:09.090Z,99.90
2023-03-17T08:26:12.588Z,99.90
2023-03-17T08:31:17.188Z,99.90
2023-03-17T08:36:19.518Z,99.90
2023-03-17T08:41:24.643Z,99.90
2023-03-17T08:46:27.183Z,99.90
2023-03-17T08:51:44.151Z,99.90
2023-03-17T08:56:47.176Z,99.90
2023-03-17T09:01:48.895Z,99.90
2023-03-17T09:07:02.204Z,97.80
2023-03-17T09:12:07.328Z,95.20
2023-03-17T09:17:09.057Z,91.00
2023-03-17T09:22:13.882Z,89.10
2023-03-17T09:27:16.944Z,91.10
2023-03-17T09:32:18.684Z,80.30
2023-03-17T09:37:20.436Z,80.10
2023-03-17T09:42:39.385Z,80.10
2023-03-17T09:47:56.068Z,76.70
2023-03-17T09:53:00.036Z,75.10
2023-03-17T09:58:04.536Z,73.40
2023-03-17T10:03:09.992Z,74.00
2023-03-17T10:08:30.136Z,72.00
2023-03-17T10:13:47.547Z,72.50
2023-03-17T10:18:54.040Z,70.30
2023-03-17T10:23:56.762Z,69.00
2023-03-17T10:29:01.223Z,69.10
2023-03-17T10:39:21.436Z,66.90
2023-03-17T10:44:35.724Z,67.40
2023-03-17T10:49:37.438Z,66.20
2023-03-17T10:54:39.173Z,64.90
2023-03-17T10:59:48.221Z,63.20
2023-03-17T11:04:50.131Z,62.50
2023-03-17T11:09:56.905Z,61.30
2023-03-17T11:15:03.384Z,62.40
2023-03-17T11:20:19.296Z,60.70
2023-03-17T11:25:21.247Z,59.50
2023-03-17T11:30:31.320Z,58.80
2023-03-17T11:35:43.964Z,59.40
2023-03-17T11:40:58.145Z,58.90
2023-03-17T11:46:05.985Z,61.20
2023-03-17T11:51:17.890Z,58.70
2023-03-17T11:56:22.146Z,58.90
2023-03-17T12:01:28.929Z,57.70
2023-03-17T12:06:34.210Z,60.50
2023-03-17T12:11:40.249Z,57.10
2023-03-17T12:16:49.912Z,57.90
2023-03-17T12:21:54.485Z,57.20
2023-03-17T12:26:59.500Z,57.90
2023-03-17T12:32:06.905Z,58.70
2023-03-17T12:37:08.860Z,59.30
2023-03-17T12:42:22.099Z,60.10
2023-03-17T12:47:43.655Z,61.30
2023-03-17T12:53:11.359Z,61.30
2023-03-17T12:58:26.824Z,60.60
2023-03-17T13:03:32.652Z,61.20
2023-03-17T13:08:36.943Z,62.30
2023-03-17T13:13:46.086Z,62.40
2023-03-17T13:18:50.226Z,62.00
2023-03-17T13:23:59.334Z,62.70
2023-03-17T13:29:02.800Z,60.70
2023-03-17T13:34:14.558Z,60.60
2023-03-17T13:39:44.902Z,60.80
2023-03-17T13:45:22.900Z,59.20
2023-03-17T13:50:31.963Z,60.40
2023-03-17T13:55:38.957Z,59.70
2023-03-17T14:00:43.125Z,60.80
2023-03-17T14:05:50.719Z,59.50
2023-03-17T14:10:54.405Z,59.80
2023-03-17T14:16:01.120Z,60.70
2023-03-17T14:21:10.534Z,61.60
2023-03-17T14:26:13.568Z,60.50
2023-03-17T14:31:22.513Z,61.90
2023-03-17T14:36:26.970Z,63.30
2023-03-17T14:41:29.248Z,62.60
2023-03-17T14:46:33.341Z,63.50
2023-03-17T14:51:39.047Z,63.80
2023-03-17T14:56:43.237Z,63.80
2023-03-17T15:01:45.964Z,64.00
2023-03-17T15:06:50.991Z,65.30
2023-03-17T15:11:55.707Z,65.60
2023-03-17T15:16:58.193Z,67.20
2023-03-17T15:22:05.708Z,68.80
2023-03-17T15:27:14.302Z,67.80
2023-03-17T15:32:17.821Z,68.90
2023-03-17T15:37:22.918Z,67.80
2023-03-17T15:42:26.303Z,67.80
2023-03-17T15:47:30.805Z,68.60
2023-03-17T15:52:33.998Z,69.50
2023-03-17T15:57:35.711Z,68.80
2023-03-17T16:02:37.629Z,69.50
2023-03-17T16:07:40.971Z,69.80
2023-03-17T16:12:42.743Z,70.00
2023-03-17T16:17:45.854Z,69.50
2023-03-17T16:22:49.219Z,69.50
2023-03-17T16:27:52.260Z,70.40
2023-03-17T16:32:55.061Z,71.50
2023-03-17T16:37:58.119Z,72.40
2023-03-17T16:42:59.892Z,72.90
2023-03-17T16:48:03.311Z,74.60
2023-03-17T16:53:06.458Z,75.50
2023-03-17T16:58:15.657Z,76.50
2023-03-17T17:03:17.768Z,77.90
2023-03-17T17:08:21.018Z,80.10
2023-03-17T17:13:22.733Z,82.70
2023-03-17T17:18:24.416Z,85.50
2023-03-17T17:23:27.600Z,86.30
2023-03-17T17:28:29.384Z,88.00
2023-03-17T17:33:31.091Z,91.30
2023-03-17T17:38:34.216Z,91.00
2023-03-17T17:43:36.037Z,91.70
2023-03-17T17:48:40.691Z,91.90
2023-03-17T17:53:43.997Z,95.50
2023-03-17T17:58:46.102Z,93.60
2023-03-17T18:03:48.246Z,93.60
2023-03-17T18:08:51.382Z,96.30
2023-03-17T18:13:53.332Z,96.50
2023-03-17T18:18:55.102Z,96.90
2023-03-17T18:23:58.089Z,98.60
2023-03-17T18:29:00.056Z,99.90
2023-03-17T18:34:07.197Z,99.90
2023-03-17T18:39:10.337Z,99.90
2023-03-17T18:44:11.970Z,99.90
2023-03-17T18:49:13.686Z,99.90
2023-03-17T18:54:16.820Z,99.90
2023-03-17T18:59:18.580Z,99.90
2023-03-17T19:04:20.558Z,99.90
2023-03-17T19:09:23.675Z,99.90
2023-03-17T19:14:25.310Z,99.90
2023-03-17T19:19:27.049Z,99.90
2023-03-17T19:24:30.630Z,99.90
2023-03-17T19:29:32.731Z,99.90
2023-03-17T19:34:37.205Z,99.90
2023-03-17T19:39:40.461Z,99.90
2023-03-17T19:44:45.234Z,99.90
2023-03-17T19:49:46.935Z,99.90
2023-03-17T19:54:52.378Z,99.90
2023-03-17T20:00:01.734Z,99.90
2023-03-17T20:10:25.502Z,99.90
2023-03-17T20:15:27.264Z,99.90
2023-03-17T20:20:39.135Z,99.90
2023-03-17T20:25:42.165Z,99.90
2023-03-17T20:30:52.917Z,99.90
2023-03-17T20:36:01.372Z,99.90
2023-03-17T20:41:16.539Z,99.90
2023-03-17T20:46:29.680Z,99.90
2023-03-17T20:51:33.472Z,99.90
2023-03-17T20:56:46.883Z,99.90
2023-03-17T21:01:54.561Z,99.90
2023-03-17T21:06:56.403Z,99.90
2023-03-17T21:12:01.978Z,99.90
2023-03-17T21:17:03.819Z,99.90
2023-03-17T21:22:06.043Z,99.90
2023-03-17T21:27:10.627Z,99.90
2023-03-17T21:32:15.399Z,99.90
2023-03-17T21:37:20.036Z,99.90
2023-03-17T21:42:23.346Z,99.90
2023-03-17T21:47:25.113Z,99.90
2023-03-17T21:52:30.026Z,99.90
2023-03-17T21:57:33.144Z,99.90
2023-03-17T22:02:35.051Z,99.90
2023-03-17T22:07:36.999Z,99.90
2023-03-17T22:12:40.193Z,99.90
2023-03-17T22:17:41.835Z,99.90
2023-03-17T22:22:43.512Z,99.90
2023-03-17T22:27:46.522Z,99.90
2023-03-17T22:32:48.294Z,99.90
2023-03-17T22:37:52.765Z,99.90
2023-03-17T22:42:56.841Z,99.90
2023-03-17T22:47:58.473Z,99.90
2023-03-17T22:53:00.131Z,99.90
2023-03-17T22:58:03.218Z,99.90
2023-03-17T23:03:04.910Z,99.90
2023-03-17T23:08:06.554Z,99.90
2023-03-17T23:13:09.853Z,99.90
2023-03-17T23:18:11.679Z,99.90
2023-03-17T23:23:13.429Z,99.90
2023-03-17T23:28:16.552Z,99.90
2023-03-17T23:33:18.776Z,99.90
2023-03-17T23:38:20.690Z,99.90
2023-03-17T23:43:23.994Z,99.90
2023-03-17T23:48:25.960Z,99.90
2023-03-17T23:53:27.785Z,99.90
2023-03-17T23:58:30.907Z,99.90
